createdAt,value
2022-12-14T00:17:47.000Z,-3.3
2022-12-14T00:47:51.000Z,-3.2
2022-12-14T01:17:54.000Z,-3.0
2022-12-14T01:47:55.000Z,-2.9
2022-12-14T02:18:02.000Z,-2.8
2022-12-14T02:48:05.000Z,-2.5
2022-12-14T03:18:06.000Z,-2.5
2022-12-14T03:48:12.000Z,-2.4
2022-12-14T04:18:15.000Z,-2.5
2022-12-14T04:48:16.000Z,-2.3
2022-12-14T05:18:17.000Z,-2.3
2022-12-14T05:48:25.000Z,-2.5
2022-12-14T06:18:29.000Z,-2.3
2022-12-14T06:50:04.000Z,-2.0
2022-12-14T07:20:13.000Z,-2.0
2022-12-14T07:50:16.000Z,-1.7
2022-12-14T08:20:18.000Z,-1.4
2022-12-14T08:50:21.000Z,-1.0
2022-12-14T09:20:27.000Z,-1.0
2022-12-14T09:50:28.000Z,-0.6
2022-12-14T10:20:29.000Z,-0.3
2022-12-14T10:50:31.000Z,0.0
2022-12-14T11:20:37.000Z,0.2
2022-12-14T11:50:39.000Z,0.7
2022-12-14T12:20:44.000Z,1.0
2022-12-14T12:50:45.000Z,1.0
2022-12-14T13:20:49.392Z,1.2
2022-12-14T13:50:54.000Z,1.2
2022-12-14T14:20:59.000Z,1.1
2022-12-14T14:51:03.000Z,0.8
2022-12-14T15:21:05.000Z,0.8
2022-12-14T15:51:14.000Z,0.7
2022-12-14T16:21:19.000Z,0.7
2022-12-14T16:51:22.000Z,0.6
2022-12-14T16:51:32.000Z,0.6
2022-12-14T16:51:42.000Z,0.6
2022-12-14T16:51:53.000Z,0.6
2022-12-14T16:52:03.000Z,0.6
2022-12-14T17:23:37.000Z,0.5
2022-12-14T17:53:40.506Z,0.5
2022-12-14T18:23:50.000Z,0.5
2022-12-14T18:53:54.000Z,0.4
2022-12-14T19:23:57.441Z,0.4
2022-12-14T19:54:02.422Z,0.1
2022-12-14T20:24:05.000Z,0.1
2022-12-14T20:54:15.000Z,-0.2
2022-12-14T21:24:17.000Z,-0.4
2022-12-14T21:54:22.000Z,-0.7
2022-12-14T22:24:28.268Z,-0.9
2022-12-14T22:54:34.000Z,-1.1
2022-12-14T23:24:38.000Z,-1.4
2022-12-14T23:54:43.000Z,-1.5
